createdAt,value
2023-04-23T00:00:05.226Z,99544.31
2023-04-23T00:05:16.447Z,99552.06
2023-04-23T00:10:19.469Z,99539.31
2023-04-23T00:15:23.745Z,99533.22
2023-04-23T00:20:26.508Z,99528.63
2023-04-23T00:25:29.286Z,99534.06
2023-04-23T00:30:33.639Z,99539.69
2023-04-23T00:35:36.381Z,99533.28
2023-04-23T00:40:39.319Z,99542.66
2023-04-23T00:45:43.681Z,99542.84
2023-04-23T00:50:47.562Z,99548.75
2023-04-23T00:55:50.457Z,99537.28
2023-04-23T01:00:55.009Z,99529.91
2023-04-23T01:05:58.212Z,99534.22
2023-04-23T01:11:01.537Z,99532.47
2023-04-23T01:16:05.886Z,99527.00
2023-04-23T01:21:11.581Z,99535.16
2023-04-23T01:26:15.883Z,99538.75
2023-04-23T01:31:19.733Z,99540.06
2023-04-23T01:36:23.663Z,99546.25
2023-04-23T01:41:29.509Z,99543.44
2023-04-23T01:46:32.982Z,99546.13
2023-04-23T01:51:36.341Z,99553.41
2023-04-23T01:56:40.547Z,99548.34
2023-04-23T02:01:45.751Z,99561.56
2023-04-23T02:06:51.016Z,99564.94
2023-04-23T02:11:55.269Z,99564.41
2023-04-23T02:16:58.707Z,99565.16
2023-04-23T02:22:01.715Z,99548.94
2023-04-23T02:27:05.956Z,99551.56
2023-04-23T02:32:08.746Z,99554.78
2023-04-23T02:37:12.347Z,99558.28
2023-04-23T02:42:16.740Z,99562.69
2023-04-23T02:47:19.592Z,99567.50
2023-04-23T02:52:22.438Z,99565.63
2023-04-23T02:57:26.725Z,99578.31
2023-04-23T03:02:29.813Z,99578.47
2023-04-23T03:07:32.962Z,99590.50
2023-04-23T03:12:37.164Z,99581.28
2023-04-23T03:17:40.174Z,99593.97
2023-04-23T03:22:43.076Z,99606.94
2023-04-23T03:27:47.348Z,99600.16
2023-04-23T03:32:51.610Z,99610.16
2023-04-23T03:37:54.798Z,99609.13
2023-04-23T03:43:00.952Z,99602.78
2023-04-23T03:48:21.565Z,99595.84
2023-04-23T03:53:24.516Z,99604.19
2023-04-23T03:58:47.038Z,99613.94
2023-04-23T04:03:50.023Z,99607.47
2023-04-23T04:08:53.036Z,99614.22
2023-04-23T04:13:57.234Z,99613.81
2023-04-23T04:19:01.423Z,99616.75
2023-04-23T04:24:04.852Z,99614.22
2023-04-23T04:29:09.313Z,99621.53
2023-04-23T04:34:14.648Z,99609.72
2023-04-23T04:39:17.418Z,99612.38
2023-04-23T04:44:21.526Z,99614.25
2023-04-23T04:49:24.378Z,99609.72
2023-04-23T04:54:27.252Z,99603.78
2023-04-23T04:59:31.409Z,99604.19
2023-04-23T05:04:34.284Z,99597.28
2023-04-23T05:09:37.059Z,99602.38
2023-04-23T05:14:41.329Z,99607.16
2023-04-23T05:19:44.228Z,99605.75
2023-04-23T05:24:47.150Z,99608.03
2023-04-23T05:29:51.287Z,99606.44
2023-04-23T05:34:54.136Z,99616.44
2023-04-23T05:39:57.477Z,99611.34
2023-04-23T05:45:01.605Z,99619.41
2023-04-23T05:50:04.588Z,99621.84
2023-04-23T05:55:08.297Z,99619.56
2023-04-23T06:00:14.105Z,99617.75
2023-04-23T06:05:17.047Z,99616.28
2023-04-23T06:10:20.205Z,99606.63
2023-04-23T06:15:27.056Z,99607.13
2023-04-23T06:20:30.704Z,99597.94
2023-04-23T06:25:33.535Z,99598.78
2023-04-23T06:30:37.704Z,99599.19
2023-04-23T06:35:40.736Z,99599.25
2023-04-23T06:40:43.587Z,99603.97
2023-04-23T06:45:47.790Z,99592.75
2023-04-23T06:50:50.982Z,99599.97
2023-04-23T06:55:53.787Z,99587.91
2023-04-23T07:00:59.861Z,99597.13
2023-04-23T07:06:05.202Z,99589.56
2023-04-23T07:11:08.431Z,99581.94
2023-04-23T07:16:13.760Z,99578.38
2023-04-23T07:21:16.634Z,99576.72
2023-04-23T07:26:19.461Z,99576.53
2023-04-23T07:31:23.878Z,99570.69
2023-04-23T07:36:27.739Z,99554.50
2023-04-23T07:41:30.787Z,99551.22
2023-04-23T07:46:34.963Z,99542.47
2023-04-23T07:51:37.802Z,99539.41
2023-04-23T07:56:42.716Z,99532.63
2023-04-23T08:01:47.899Z,99528.50
2023-04-23T08:06:51.020Z,99521.78
2023-04-23T08:11:54.552Z,99522.50
2023-04-23T08:16:58.838Z,99516.53
2023-04-23T08:22:01.809Z,99511.28
2023-04-23T08:27:04.784Z,99520.31
2023-04-23T08:32:08.953Z,99522.53
2023-04-23T08:37:23.221Z,99516.41
2023-04-23T08:42:39.588Z,99518.50
2023-04-23T08:47:44.376Z,99517.84
2023-04-23T08:52:50.880Z,99503.56
2023-04-23T08:57:54.096Z,99511.22
2023-04-23T09:02:59.794Z,99505.69
2023-04-23T09:08:02.904Z,99509.81
2023-04-23T09:13:06.052Z,99499.72
2023-04-23T09:18:10.795Z,99495.22
2023-04-23T09:23:16.136Z,99471.34
2023-04-23T09:28:19.006Z,99486.16
2023-04-23T09:33:23.368Z,99475.19
2023-04-23T09:38:26.740Z,99472.69
2023-04-23T09:43:31.746Z,99461.25
2023-04-23T09:48:43.251Z,99456.47
2023-04-23T09:53:46.485Z,99451.59
2023-04-23T09:58:49.446Z,99457.16
2023-04-23T10:03:54.589Z,99460.56
2023-04-23T10:08:58.123Z,99450.94
2023-04-23T10:14:01.734Z,99458.78
2023-04-23T10:19:08.896Z,99461.56
2023-04-23T10:24:12.506Z,99455.59
2023-04-23T10:29:17.284Z,99455.47
2023-04-23T10:34:22.029Z,99461.34
2023-04-23T10:39:30.044Z,99452.59
2023-04-23T10:44:56.504Z,99465.84
2023-04-23T10:49:58.836Z,99440.31
2023-04-23T10:55:02.002Z,99436.38
2023-04-23T11:00:06.118Z,99421.16
2023-04-23T11:05:10.603Z,99417.03
2023-04-23T11:10:14.651Z,99437.53
2023-04-23T11:15:21.192Z,99410.19
2023-04-23T11:20:25.380Z,99414.88
2023-04-23T11:25:30.334Z,99422.84
2023-04-23T11:30:33.667Z,99409.50
2023-04-23T11:35:40.813Z,99419.13
2023-04-23T11:40:48.490Z,99420.78
2023-04-23T11:45:51.342Z,99413.56
2023-04-23T11:50:55.784Z,99399.16
2023-04-23T11:55:59.571Z,99392.84
2023-04-23T12:01:02.502Z,99381.31
2023-04-23T12:06:07.782Z,99384.00
2023-04-23T12:11:13.070Z,99391.16
2023-04-23T12:16:15.894Z,99383.06
2023-04-23T12:21:20.170Z,99380.41
2023-04-23T12:26:24.945Z,99371.38
2023-04-23T12:31:29.651Z,99363.47
2023-04-23T12:36:34.855Z,99359.13
2023-04-23T12:41:37.861Z,99358.53
2023-04-23T12:46:40.751Z,99353.56
2023-04-23T12:51:45.267Z,99354.59
2023-04-23T12:56:48.118Z,99354.13
2023-04-23T13:01:51.603Z,99344.72
2023-04-23T13:06:56.594Z,99345.78
2023-04-23T13:12:00.144Z,99327.81
2023-04-23T13:17:03.488Z,99317.63
2023-04-23T13:22:08.071Z,99324.41
2023-04-23T13:27:11.216Z,99302.91
2023-04-23T13:32:14.546Z,99295.09
2023-04-23T13:37:18.750Z,99278.09
2023-04-23T13:42:21.566Z,99250.34
2023-04-23T13:47:25.101Z,99253.06
2023-04-23T13:52:29.314Z,99247.72
2023-04-23T13:57:32.198Z,99235.09
2023-04-23T14:02:35.367Z,99240.22
2023-04-23T14:07:39.810Z,99218.28
2023-04-23T14:12:42.685Z,99199.81
2023-04-23T14:17:45.940Z,99204.75
2023-04-23T14:22:56.250Z,99210.72
2023-04-23T14:28:04.984Z,99204.81
2023-04-23T14:33:07.924Z,99208.66
2023-04-23T14:38:12.265Z,99207.84
2023-04-23T14:43:16.150Z,99203.81
2023-04-23T14:48:19.317Z,99223.22
2023-04-23T14:53:23.484Z,99218.41
2023-04-23T14:58:26.412Z,99226.41
2023-04-23T15:03:29.395Z,99198.91
2023-04-23T15:08:33.715Z,99178.94
2023-04-23T15:13:45.338Z,99172.66
2023-04-23T15:18:48.099Z,99158.84
2023-04-23T15:23:53.720Z,99146.88
2023-04-23T15:28:58.156Z,99143.75
2023-04-23T15:34:01.069Z,99157.06
2023-04-23T15:39:05.902Z,99138.63
2023-04-23T15:44:12.099Z,99149.09
2023-04-23T15:49:15.126Z,99201.38
2023-04-23T15:54:19.271Z,99181.69
2023-04-23T15:59:22.060Z,99165.03
2023-04-23T16:04:25.083Z,99144.59
2023-04-23T16:09:29.419Z,99139.75
2023-04-23T16:14:32.479Z,99127.03
2023-04-23T16:19:35.383Z,99119.06
2023-04-23T16:24:39.510Z,99112.69
2023-04-23T16:29:42.658Z,99106.44
2023-04-23T16:34:45.624Z,99101.34
2023-04-23T16:39:49.784Z,99094.44
2023-04-23T16:44:52.596Z,99083.34
2023-04-23T16:49:55.489Z,99074.00
2023-04-23T16:54:59.692Z,99060.97
2023-04-23T17:00:05.011Z,99062.63
2023-04-23T17:05:09.217Z,99055.63
2023-04-23T17:10:15.336Z,99055.53
2023-04-23T17:15:18.346Z,99045.81
2023-04-23T17:20:22.032Z,99038.91
2023-04-23T17:25:26.235Z,99035.78
2023-04-23T17:30:29.333Z,99035.09
2023-04-23T17:35:32.132Z,99027.63
2023-04-23T17:40:37.446Z,99027.06
2023-04-23T17:45:41.156Z,99035.56
2023-04-23T17:50:44.806Z,99051.44
2023-04-23T17:55:49.012Z,99033.66
2023-04-23T18:00:51.891Z,99022.88
2023-04-23T18:05:54.989Z,99026.28
2023-04-23T18:10:59.202Z,99030.16
2023-04-23T18:16:02.081Z,99030.72
2023-04-23T18:21:05.835Z,99034.47
2023-04-23T18:26:10.240Z,99029.22
2023-04-23T18:31:13.449Z,99030.72
2023-04-23T18:36:25.006Z,99037.84
2023-04-23T18:41:30.121Z,99032.44
2023-04-23T18:46:33.172Z,99033.44
2023-04-23T18:51:39.681Z,99019.81
2023-04-23T18:56:43.861Z,99019.47
2023-04-23T19:01:47.991Z,99024.81
2023-04-23T19:06:50.824Z,99010.84
2023-04-23T19:11:55.411Z,99002.94
2023-04-23T19:16:58.301Z,98991.00
2023-04-23T19:22:03.349Z,98996.91
2023-04-23T19:27:07.797Z,99113.72
2023-04-23T19:32:10.713Z,99113.88
2023-04-23T19:37:13.643Z,99101.22
2023-04-23T19:42:18.291Z,99074.09
2023-04-23T19:47:21.178Z,99054.06
2023-04-23T19:52:26.802Z,99053.78
2023-04-23T19:57:31.108Z,99048.44
2023-04-23T20:02:34.095Z,99035.41
2023-04-23T20:07:37.194Z,99031.38
2023-04-23T20:12:41.625Z,99024.78
2023-04-23T20:17:44.422Z,99009.50
2023-04-23T20:22:47.279Z,98998.72
2023-04-23T20:27:51.922Z,98996.56
2023-04-23T20:32:54.812Z,98978.19
2023-04-23T20:37:57.791Z,98979.03
2023-04-23T20:43:01.969Z,98974.06
2023-04-23T20:48:05.466Z,98962.50
2023-04-23T20:53:08.600Z,98968.72
2023-04-23T20:58:13.353Z,98961.38
2023-04-23T21:03:16.626Z,98950.16
2023-04-23T21:08:19.923Z,98940.53
2023-04-23T21:13:24.703Z,98937.88
2023-04-23T21:18:27.920Z,98940.44
2023-04-23T21:23:31.143Z,98930.50
2023-04-23T21:28:37.015Z,98926.31
2023-04-23T21:33:40.050Z,98908.50
2023-04-23T21:38:43.270Z,98908.19
2023-04-23T21:43:47.452Z,98913.41
2023-04-23T21:48:53.464Z,98905.69
2023-04-23T21:53:56.304Z,98909.53
2023-04-23T21:59:00.514Z,98913.41
2023-04-23T22:04:04.191Z,98907.66
2023-04-23T22:09:07.379Z,98902.31
2023-04-23T22:14:11.636Z,98902.81
2023-04-23T22:19:16.054Z,98910.22
2023-04-23T22:24:18.824Z,98914.41
2023-04-23T22:29:23.082Z,98908.00
2023-04-23T22:34:25.967Z,98907.00
2023-04-23T22:39:28.801Z,98916.59
2023-04-23T22:44:32.909Z,98897.94
2023-04-23T22:49:35.944Z,98899.44
2023-04-23T22:54:39.064Z,98924.00
2023-04-23T22:59:43.576Z,98916.59
2023-04-23T23:04:46.766Z,98926.94
2023-04-23T23:09:50.129Z,98927.13
2023-04-23T23:14:54.286Z,98931.44
2023-04-23T23:19:57.118Z,98930.34
2023-04-23T23:25:00.170Z,98938.16
2023-04-23T23:30:05.835Z,98923.59
2023-04-23T23:35:09.291Z,98910.16
2023-04-23T23:40:12.690Z,98922.88
2023-04-23T23:45:17.068Z,98930.38
2023-04-23T23:50:20.074Z,98942.28
2023-04-23T23:55:22.830Z,98934.00
